Weather at Denver International Airport

Public forecast

Using degrees Fahrenheit for public forecast. Weather courtesy of forecast.io.

Current aviation weather report (METAR) for Denver International Airport

Retrieved 2021/07/28 11:53 UTC (47 minutes ago):

KDEN 281153Z 19009KT 10SM CLR 20/12 A3016 RMK AO2 SLP120 T02000122 10250 20194 55001

Aviation forecast (TAF) for Denver International Airport

Retrieved 2021/07/28 12:51 UTC (0 seconds ago):

TAF KDEN 281148Z 2812/2918 19010KT P6SM SKC FM281300 25008KT P6SM FEW220 FM281700 33006KT P6SM FEW080 FEW220 FM281900 36008KT P6SM FEW080 SCT220 FM282200 03010KT P6SM FEW080 SCT220 FM290100 08008KT P6SM FEW080 FEW220 FM290700 18010KT P6SM FEW220 FM291300 25008KT P6SM FEW220